Time;durP1;ratioP1;P1;durP2;ratioP2;P2;SDS_P1;SDS_P2;PMS_P1;PMS_P2;Temp;Humidity;BMP_temperature;BMP_pressure;BME280_temperature;BME280_humidity;BME280_pressure;Samples;Min_cycle;Max_cycle;Signal;HPM_P1;HPM_P2
2023/05/19 00:00:45;;;;;;;2.75;1.02;;;;;;;10.87;66.51;102837.72;5078904;27;100784;-28
2023/05/19 00:03:11;;;;;;;3.25;1.30;;;;;;;10.88;65.88;102833.19;5078980;27;96637;-28
2023/05/19 00:05:44;;;;;;;1.38;0.80;;;;;;;10.89;67.92;102832.22;5079226;27;96555;-29
2023/05/19 00:08:10;;;;;;;1.92;0.90;;;;;;;10.81;67.75;102824.34;5097093;27;99744;-29
2023/05/19 00:10:36;;;;;;;0.88;0.60;;;;;;;10.88;67.70;102839.50;5078994;27;100852;-28
2023/05/19 00:13:02;;;;;;;0.60;0.45;;;;;;;10.90;66.50;102837.63;5078807;27;96690;-28
2023/05/19 00:15:28;;;;;;;2.08;1.08;;;;;;;10.89;67.45;102833.13;5078965;27;96897;-28
2023/05/19 00:17:54;;;;;;;2.17;0.95;;;;;;;10.85;67.52;102828.75;5096751;27;97447;-28
2023/05/19 00:20:20;;;;;;;1.20;0.90;;;;;;;10.87;67.48;102837.72;5078633;27;100654;-29
2023/05/19 00:22:46;;;;;;;1.00;0.88;;;;;;;10.86;67.50;102824.22;5078800;27;96804;-28
2023/05/19 00:25:11;;;;;;;2.78;0.88;;;;;;;10.86;67.64;102825.09;5097457;27;96838;-28
2023/05/19 00:27:36;;;;;;;0.77;0.57;;;;;;;10.87;67.89;102835.00;5097178;27;97905;-28
2023/05/19 00:30:02;;;;;;;1.63;0.88;;;;;;;10.84;66.99;102830.56;5097094;27;97825;-30
2023/05/19 00:32:27;;;;;;;6.18;1.17;;;;;;;10.79;67.77;102829.81;5096064;27;96790;-28
2023/05/19 00:34:52;;;;;;;2.50;1.27;;;;;;;10.77;67.45;102830.78;5097907;27;96566;-30
2023/05/19 00:37:18;;;;;;;1.38;0.95;;;;;;;10.79;67.46;102839.75;5096753;27;99316;-28
2023/05/19 00:39:43;;;;;;;4.40;1.15;;;;;;;10.70;67.22;102837.31;5096946;27;104488;-28
2023/05/19 00:42:08;;;;;;;3.00;1.35;;;;;;;10.70;68.02;102843.66;5096567;27;96511;-28
2023/05/19 00:44:38;;;;;;;1.38;0.85;;;;;;;10.67;68.42;102834.72;5097177;27;96799;-29
2023/05/19 00:47:04;;;;;;;1.17;0.88;;;;;;;10.63;68.60;102836.66;5077771;27;101755;-28
2023/05/19 00:49:29;;;;;;;2.10;1.08;;;;;;;10.62;68.71;102837.56;5096800;27;97583;-28
2023/05/19 00:51:55;;;;;;;2.47;1.35;;;;;;;10.60;69.76;102832.19;5097081;27;96724;-28
2023/05/19 00:54:20;;;;;;;1.85;0.95;;;;;;;10.58;68.69;102828.66;5097152;27;96841;-28
2023/05/19 00:56:46;;;;;;;2.88;1.23;;;;;;;10.53;68.75;102818.88;5096714;27;97963;-28
2023/05/19 00:59:11;;;;;;;2.38;0.85;;;;;;;10.55;69.41;102825.13;5096606;27;99353;-28
2023/05/19 01:01:37;;;;;;;3.60;1.10;;;;;;;10.55;68.86;102815.16;5096583;27;96757;-28
2023/05/19 01:04:04;;;;;;;4.65;1.55;;;;;;;10.50;68.60;102822.56;5078173;27;96933;-28
2023/05/19 01:06:29;;;;;;;2.58;1.05;;;;;;;10.43;70.08;102818.25;5094801;27;99497;-28
2023/05/19 01:08:56;;;;;;;1.52;0.93;;;;;;;10.42;69.73;102816.50;5095979;27;99169;-28
2023/05/19 01:11:21;;;;;;;1.75;0.77;;;;;;;10.34;69.92;102808.56;5096531;27;96592;-29
2023/05/19 01:13:47;;;;;;;4.80;1.23;;;;;;;10.33;70.69;102817.63;5096828;27;96754;-28
2023/05/19 01:17:04;;;;;;;2.15;0.77;;;;;;;10.37;70.03;102821.16;5096449;27;97367;-28
2023/05/19 01:20:11;;;;;;;2.47;0.90;;;;;;;10.31;69.25;102830.31;5034962;27;99273;-28
2023/05/19 01:22:59;;;;;;;1.63;0.90;;;;;;;10.25;69.65;102832.28;4992923;28;96697;-28
2023/05/19 01:25:43;;;;;;;1.83;1.08;;;;;;;10.17;69.81;102814.44;4976045;28;97072;-28
2023/05/19 01:28:38;;;;;;;1.08;0.80;;;;;;;10.24;70.72;102815.16;5050441;27;101596;-28
2023/05/19 01:31:06;;;;;;;1.25;0.68;;;;;;;10.15;70.04;102810.91;5096175;27;97486;-28
2023/05/19 01:33:32;;;;;;;2.65;1.10;;;;;;;10.12;69.93;102819.09;5076661;27;96680;-28
2023/05/19 01:35:59;;;;;;;1.88;0.95;;;;;;;10.06;71.35;102807.53;5077612;27;96873;-28
2023/05/19 01:38:27;;;;;;;2.35;1.10;;;;;;;10.04;71.48;102807.59;5095928;27;98991;-28
2023/05/19 01:40:53;;;;;;;1.45;1.20;;;;;;;10.08;70.58;102816.50;5077318;27;100892;-28
2023/05/19 01:43:20;;;;;;;1.83;0.93;;;;;;;10.03;70.92;102811.22;5077380;27;96701;-28
2023/05/19 01:45:47;;;;;;;1.15;0.77;;;;;;;10.01;71.01;102813.09;5077683;27;96872;-28
2023/05/19 01:48:13;;;;;;;1.30;0.90;;;;;;;9.97;70.64;102806.88;5077055;27;100841;-29
2023/05/19 01:50:40;;;;;;;2.20;1.08;;;;;;;9.98;70.84;102805.03;5077518;27;101112;-28
2023/05/19 01:53:05;;;;;;;3.83;1.38;;;;;;;9.93;71.44;102794.34;5077566;27;96607;-28
2023/05/19 01:55:30;;;;;;;0.70;0.70;;;;;;;10.01;71.99;102807.69;5096319;27;96779;-28
2023/05/19 01:58:13;;;;;;;2.33;1.13;;;;;;;9.98;70.43;102791.50;5095149;27;98087;-27
2023/05/19 02:00:44;;;;;;;1.27;0.80;;;;;;;9.97;70.93;102806.88;5077213;27;101025;-28
2023/05/19 02:03:31;;;;;;;0.90;0.70;;;;;;;9.99;71.34;102805.03;5077367;27;96707;-28
2023/05/19 02:06:08;;;;;;;2.78;1.17;;;;;;;9.96;71.24;102804.19;5096469;27;96738;-28
2023/05/19 02:08:54;;;;;;;3.20;1.25;;;;;;;9.94;72.01;102801.56;5095398;27;98048;-28
2023/05/19 02:11:37;;;;;;;1.55;0.98;;;;;;;9.85;71.09;102785.56;5076977;27;100719;-28
2023/05/19 02:14:14;;;;;;;1.77;1.00;;;;;;;9.81;71.08;102788.38;5095896;27;96552;-28
2023/05/19 02:16:45;;;;;;;3.08;1.38;;;;;;;9.81;71.05;102791.97;5096054;27;96738;-28
2023/05/19 02:19:25;;;;;;;1.60;0.93;;;;;;;9.70;72.10;102792.28;5080151;27;101328;-28
2023/05/19 02:21:51;;;;;;;3.17;0.80;;;;;;;9.60;72.75;102785.31;5080709;27;101286;-28
2023/05/19 02:24:16;;;;;;;1.67;0.98;;;;;;;9.64;72.57;102780.72;5099087;27;96696;-28
2023/05/19 02:26:42;;;;;;;2.05;1.25;;;;;;;9.67;72.23;102786.03;5099376;27;96696;-28
2023/05/19 02:29:08;;;;;;;1.70;1.00;;;;;;;9.64;72.04;102781.59;5098596;27;99670;-28
2023/05/19 02:31:33;;;;;;;0.88;0.70;;;;;;;9.70;72.27;102791.38;5098919;27;97266;-28
2023/05/19 02:33:58;;;;;;;3.22;1.63;;;;;;;9.66;72.13;102774.34;5099083;27;96479;-28
2023/05/19 02:36:25;;;;;;;1.20;0.88;;;;;;;9.69;71.66;102793.19;5099475;27;96855;-28
2023/05/19 02:38:50;;;;;;;1.05;0.95;;;;;;;9.64;72.66;102784.31;5098974;27;97967;-29
2023/05/19 02:41:16;;;;;;;3.17;0.80;;;;;;;9.69;72.49;102782.38;5099491;27;97261;-28
2023/05/19 02:43:41;;;;;;;3.92;1.20;;;;;;;9.64;72.01;102776.19;5098528;27;96692;-28
2023/05/19 02:46:06;;;;;;;3.30;1.08;;;;;;;9.64;72.43;102775.31;5099299;27;96719;-28
2023/05/19 02:48:32;;;;;;;3.33;1.02;;;;;;;9.54;72.77;102758.44;5098231;27;97552;-30
2023/05/19 02:50:57;;;;;;;1.63;0.98;;;;;;;9.61;72.50;102773.59;5098658;27;97361;-29
2023/05/19 02:53:24;;;;;;;1.45;0.90;;;;;;;9.63;72.54;102778.94;5098917;27;97384;-28
2023/05/19 02:55:50;;;;;;;2.17;1.10;;;;;;;9.53;72.60;102764.75;5080224;27;96752;-28
2023/05/19 02:58:15;;;;;;;2.75;1.00;;;;;;;9.56;72.69;102771.00;5098154;27;99852;-29
2023/05/19 03:00:43;;;;;;;1.85;1.10;;;;;;;9.45;73.50;102758.69;5098285;27;99304;-28
2023/05/19 03:03:09;;;;;;;1.38;0.82;;;;;;;9.46;74.01;102766.75;5080058;27;96661;-29
2023/05/19 03:05:34;;;;;;;1.88;0.98;;;;;;;9.44;72.67;102768.63;5099158;27;96722;-29
2023/05/19 03:08:00;;;;;;;1.70;0.98;;;;;;;9.41;72.35;102771.38;5097894;27;99217;-28
2023/05/19 03:10:25;;;;;;;1.00;0.85;;;;;;;9.39;72.54;102758.81;5098432;27;97591;-28
2023/05/19 03:12:50;;;;;;;2.42;1.00;;;;;;;9.33;74.89;102757.19;5097793;27;96687;-28
2023/05/19 03:15:17;;;;;;;1.63;1.10;;;;;;;9.33;74.31;102754.47;5098767;27;96748;-29
2023/05/19 03:17:42;;;;;;;1.92;1.05;;;;;;;9.32;74.37;102758.13;5079553;27;100780;-28
2023/05/19 03:20:10;;;;;;;1.98;1.10;;;;;;;9.31;73.63;102759.03;5098349;27;97946;-27
2023/05/19 03:22:35;;;;;;;4.55;1.17;;;;;;;9.32;73.50;102764.41;5079913;27;96724;-28
2023/05/19 03:25:02;;;;;;;4.22;1.17;;;;;;;9.32;74.63;102764.41;5098485;27;96874;-28
2023/05/19 03:27:28;;;;;;;3.63;1.25;;;;;;;9.33;75.29;102766.16;5079110;27;101143;-28
2023/05/19 03:29:53;;;;;;;1.15;0.90;;;;;;;9.31;74.37;102753.63;5097487;27;97842;-28
2023/05/19 03:32:18;;;;;;;1.33;0.82;;;;;;;9.37;74.06;102758.88;5097735;27;96848;-28
2023/05/19 03:34:44;;;;;;;2.25;0.88;;;;;;;9.38;74.23;102765.19;5098499;27;96595;-28
2023/05/19 03:37:09;;;;;;;5.63;1.38;;;;;;;9.38;74.53;102763.34;5097349;27;99451;-28
2023/05/19 03:39:35;;;;;;;1.88;0.95;;;;;;;9.37;74.52;102756.19;5097688;27;99221;-28
2023/05/19 03:42:00;;;;;;;2.88;1.08;;;;;;;9.32;74.25;102745.47;5097963;27;96441;-28
2023/05/19 03:44:26;;;;;;;1.77;1.10;;;;;;;9.39;74.74;102748.91;5098029;27;96878;-29
2023/05/19 03:46:51;;;;;;;1.58;1.10;;;;;;;9.37;74.88;102756.19;5097930;27;97295;-31
2023/05/19 03:49:16;;;;;;;2.85;1.13;;;;;;;9.33;74.58;102755.34;5097769;27;97764;-28
2023/05/19 03:51:43;;;;;;;3.00;1.10;;;;;;;9.36;74.54;102760.66;5098445;27;96738;-28
2023/05/19 03:54:08;;;;;;;2.45;1.02;;;;;;;9.37;74.76;102767.00;5079817;27;96841;-28
2023/05/19 03:56:38;;;;;;;2.35;0.98;;;;;;;9.30;73.95;102758.16;5097580;27;98361;-29
2023/05/19 03:59:05;;;;;;;2.30;1.20;;;;;;;9.33;74.74;102766.16;5078924;27;100791;-28
2023/05/19 04:01:31;;;;;;;1.65;0.98;;;;;;;9.29;74.59;102753.66;5078661;27;96775;-28
2023/05/19 04:03:56;;;;;;;2.80;0.63;;;;;;;9.38;74.53;102765.19;5097869;27;96748;-28
2023/05/19 04:06:22;;;;;;;3.67;1.50;;;;;;;9.30;74.13;102763.56;5097458;27;97385;-29
2023/05/19 04:08:47;;;;;;;1.63;0.95;;;;;;;9.32;74.82;102764.41;5097193;27;96562;-28
2023/05/19 04:11:13;;;;;;;1.10;0.98;;;;;;;9.35;74.05;102768.84;5097242;27;96771;-28
2023/05/19 04:13:38;;;;;;;5.38;1.35;;;;;;;9.28;73.50;102762.69;5097614;27;96773;-29
2023/05/19 04:16:04;;;;;;;1.23;0.85;;;;;;;9.31;74.22;102773.44;5097325;27;97942;-28
2023/05/19 04:18:30;;;;;;;3.58;1.35;;;;;;;9.30;74.18;102777.06;5078978;27;100753;-28
2023/05/19 04:20:55;;;;;;;2.70;1.35;;;;;;;9.33;74.83;102781.50;5097663;27;96663;-28
2023/05/19 04:23:21;;;;;;;1.98;1.00;;;;;;;9.33;74.92;102779.69;5097658;27;96709;-29
2023/05/19 04:25:47;;;;;;;5.22;1.38;;;;;;;9.35;74.26;102782.38;5096646;27;98078;-28
2023/05/19 04:28:13;;;;;;;3.53;1.05;;;;;;;9.37;75.00;102780.53;5078236;27;101647;-28
2023/05/19 04:30:39;;;;;;;1.58;0.88;;;;;;;9.40;74.58;102784.97;5078701;27;96565;-28
2023/05/19 04:33:06;;;;;;;2.22;1.13;;;;;;;9.42;74.15;102784.00;5077937;27;96925;-28
2023/05/19 04:35:31;;;;;;;2.78;0.98;;;;;;;9.43;74.49;102782.16;5078222;27;100785;-28
2023/05/19 04:37:57;;;;;;;3.00;1.35;;;;;;;9.42;73.93;102784.00;5097063;27;97962;-30
2023/05/19 04:40:22;;;;;;;1.45;0.82;;;;;;;9.39;74.50;102786.78;5096821;27;96709;-28
2023/05/19 04:42:51;;;;;;;1.70;1.27;;;;;;;9.42;75.08;102783.09;5096538;27;96650;-27
2023/05/19 04:45:16;;;;;;;2.20;1.23;;;;;;;9.44;74.70;102781.22;5078052;27;101572;-28
2023/05/19 04:47:42;;;;;;;1.98;1.02;;;;;;;9.45;74.63;102783.03;5096913;27;97301;-28
2023/05/19 04:50:08;;;;;;;4.70;1.02;;;;;;;9.46;74.38;102783.00;5096679;27;96660;-28
2023/05/19 04:52:33;;;;;;;4.63;1.38;;;;;;;9.50;74.19;102787.38;5078325;27;96770;-28
2023/05/19 04:54:58;;;;;;;1.67;1.17;;;;;;;9.48;73.93;102777.53;5096590;27;97872;-28
2023/05/19 04:57:24;;;;;;;1.95;1.38;;;;;;;9.49;74.01;102773.91;5096262;27;97224;-28
2023/05/19 04:59:49;;;;;;;4.78;1.05;;;;;;;9.55;73.50;102776.44;5096632;27;96644;-28
2023/05/19 05:02:15;;;;;;;1.85;1.08;;;;;;;9.58;73.39;102781.75;5096763;27;96631;-28
2023/05/19 05:04:42;;;;;;;4.20;1.35;;;;;;;9.53;74.20;102775.59;5096660;27;97874;-28
2023/05/19 05:07:08;;;;;;;2.13;1.00;;;;;;;9.53;73.47;102778.28;5096609;27;98881;-28
2023/05/19 05:09:34;;;;;;;1.38;1.00;;;;;;;9.58;73.59;102781.75;5096504;27;96676;-28
2023/05/19 05:12:01;;;;;;;1.55;0.93;;;;;;;9.67;73.14;102789.63;5096523;27;96795;-28
2023/05/19 05:14:27;;;;;;;4.03;1.65;;;;;;;9.73;72.95;102791.31;5060077;27;101120;-28
2023/05/19 05:16:52;;;;;;;5.05;1.42;;;;;;;9.70;73.19;102784.16;5077640;27;99734;-28
2023/05/19 05:19:18;;;;;;;2.67;1.13;;;;;;;9.75;73.68;102784.94;5096425;27;96702;-28
2023/05/19 05:21:44;;;;;;;7.93;1.52;;;;;;;9.78;73.37;102801.06;5096388;27;96762;-28
2023/05/19 05:24:10;;;;;;;1.90;1.23;;;;;;;9.78;72.39;102794.78;5077234;27;101515;-28
2023/05/19 05:26:36;;;;;;;1.75;1.27;;;;;;;9.88;73.12;102800.81;5096263;27;99331;-28
2023/05/19 05:29:02;;;;;;;3.97;1.48;;;;;;;9.91;73.42;102789.91;5096222;27;96675;-27
2023/05/19 05:31:28;;;;;;;1.15;0.90;;;;;;;10.01;72.70;102796.88;5077896;27;96855;-28
2023/05/19 05:33:53;;;;;;;4.40;1.35;;;;;;;10.10;72.29;102799.28;5095509;27;97932;-28
2023/05/19 05:36:19;;;;;;;1.58;1.05;;;;;;;10.11;72.77;102787.53;5096073;27;97775;-28
2023/05/19 05:38:44;;;;;;;6.38;1.80;;;;;;;10.20;72.82;102792.69;5095658;27;96613;-28
2023/05/19 05:41:10;;;;;;;2.88;1.45;;;;;;;10.31;72.65;102805.06;5096222;27;96810;-28
2023/05/19 05:43:35;;;;;;;3.00;1.50;;;;;;;10.41;72.16;102799.31;5096011;27;98103;-28
2023/05/19 05:46:00;;;;;;;2.53;1.27;;;;;;;10.49;72.04;102796.41;5095984;27;97819;-28
2023/05/19 05:48:26;;;;;;;4.22;1.58;;;;;;;10.61;72.06;102800.56;5096029;27;96742;-28
2023/05/19 05:50:53;;;;;;;2.20;1.00;;;;;;;10.69;72.54;102803.03;5096351;27;96782;-28
2023/05/19 05:53:20;;;;;;;1.98;1.23;;;;;;;10.77;71.45;102801.88;5076734;27;100963;-28
2023/05/19 05:55:46;;;;;;;2.53;1.42;;;;;;;10.85;71.12;102793.50;5095930;27;99365;-28
2023/05/19 05:58:13;;;;;;;4.20;1.65;;;;;;;10.92;71.05;102786.06;5077338;27;96767;-28
2023/05/19 06:00:42;;;;;;;2.90;1.63;;;;;;;11.00;70.77;102787.56;5077429;27;96900;-27
2023/05/19 06:03:08;;;;;;;3.03;1.38;;;;;;;11.13;70.89;102792.59;5076591;27;100883;-28
2023/05/19 06:05:34;;;;;;;3.08;1.63;;;;;;;11.23;70.76;102789.56;5077016;27;101489;-32
2023/05/19 06:07:59;;;;;;;1.95;1.25;;;;;;;11.38;70.35;102796.28;5095624;27;96665;-28
2023/05/19 06:10:25;;;;;;;3.17;1.40;;;;;;;11.40;70.45;102790.81;5095749;27;96714;-28
2023/05/19 06:12:50;;;;;;;5.10;1.58;;;;;;;11.50;69.76;102775.09;5095657;27;98075;-28
2023/05/19 06:15:15;;;;;;;2.75;1.50;;;;;;;11.62;69.66;102793.69;5095747;27;97349;-29
2023/05/19 06:17:40;;;;;;;2.25;1.45;;;;;;;11.69;69.41;102787.09;5096090;27;96652;-28
2023/05/19 06:20:08;;;;;;;2.63;1.40;;;;;;;11.84;69.07;102791.97;5096587;27;96832;-28
2023/05/19 06:22:35;;;;;;;2.72;1.23;;;;;;;11.90;68.91;102789.06;5076726;27;100931;-28
2023/05/19 06:25:00;;;;;;;1.83;1.33;;;;;;;12.06;68.48;102793.94;5076665;27;101262;-28
2023/05/19 06:27:25;;;;;;;2.38;1.45;;;;;;;12.19;68.57;102795.28;5095378;27;96438;-28
2023/05/19 06:29:51;;;;;;;2.72;1.38;;;;;;;12.26;67.62;102782.34;5095597;27;96743;-28
2023/05/19 06:32:17;;;;;;;3.92;1.90;;;;;;;12.37;67.52;102793.72;5075972;27;100899;-29
2023/05/19 06:34:42;;;;;;;4.25;1.58;;;;;;;12.44;67.38;102783.47;5095477;27;97837;-27
2023/05/19 06:37:07;;;;;;;4.38;1.55;;;;;;;12.59;67.35;102798.31;5076582;27;96780;-30
2023/05/19 06:39:32;;;;;;;2.75;1.40;;;;;;;12.70;66.93;102799.69;5095471;27;96848;-29
2023/05/19 06:41:58;;;;;;;2.65;1.85;;;;;;;12.74;66.23;102784.13;5094982;27;109114;-28
2023/05/19 06:44:23;;;;;;;6.20;1.95;;;;;;;12.80;66.24;102786.59;5095579;27;97782;-28
2023/05/19 06:46:48;;;;;;;2.25;1.30;;;;;;;12.70;66.51;102791.53;5095442;27;96680;-29
2023/05/19 06:49:14;;;;;;;2.85;1.52;;;;;;;12.68;66.86;102784.34;5095311;27;96837;-28
2023/05/19 06:51:40;;;;;;;3.17;1.60;;;;;;;12.76;67.02;102790.38;5094311;27;99835;-28
2023/05/19 06:54:05;;;;;;;2.40;1.27;;;;;;;12.79;66.24;102789.38;5095309;27;97917;-28
2023/05/19 06:56:31;;;;;;;2.65;1.50;;;;;;;12.88;66.33;102781.72;5095139;27;96632;-28
2023/05/19 06:58:56;;;;;;;2.95;1.58;;;;;;;13.06;66.34;102792.81;5095526;27;96915;-28
2023/05/19 07:01:21;;;;;;;4.28;1.48;;;;;;;13.15;66.14;102790.59;5094771;27;98282;-28
2023/05/19 07:03:47;;;;;;;5.15;1.58;;;;;;;13.24;65.53;102797.50;5094707;27;99128;-28
2023/05/19 07:06:12;;;;;;;4.13;1.52;;;;;;;13.40;65.63;102795.06;5098056;27;96626;-28
2023/05/19 07:08:38;;;;;;;4.13;1.73;;;;;;;13.59;65.07;102803.34;5098560;27;96864;-29
2023/05/19 07:11:03;;;;;;;5.20;1.42;;;;;;;13.60;64.36;102794.22;5098552;27;98019;-28
2023/05/19 07:13:29;;;;;;;4.93;1.45;;;;;;;13.59;64.38;102798.78;5098163;27;99630;-29
2023/05/19 07:15:54;;;;;;;3.17;1.40;;;;;;;13.63;64.76;102798.63;5098020;27;96788;-29
2023/05/19 07:18:21;;;;;;;2.50;1.55;;;;;;;13.63;64.53;102790.47;5098468;27;96843;-29
2023/05/19 07:20:46;;;;;;;7.97;1.58;;;;;;;13.68;64.07;102794.78;5079416;27;100815;-28
2023/05/19 07:23:11;;;;;;;4.10;1.75;;;;;;;13.78;64.38;102793.41;5098015;27;98845;-28
2023/05/19 07:25:37;;;;;;;3.65;1.63;;;;;;;13.84;64.02;102792.25;5098397;27;96544;-28
2023/05/19 07:28:02;;;;;;;2.58;1.30;;;;;;;13.79;64.56;102792.44;5098511;27;96795;-28
2023/05/19 07:30:28;;;;;;;2.05;1.45;;;;;;;13.91;64.09;102788.31;5098037;27;98056;-28
2023/05/19 07:32:54;;;;;;;3.38;1.58;;;;;;;14.12;63.54;102780.13;5097280;27;98971;-28
2023/05/19 07:35:21;;;;;;;3.65;1.50;;;;;;;14.28;62.66;102774.84;5098258;27;96781;-28
2023/05/19 07:37:47;;;;;;;3.63;1.48;;;;;;;14.48;62.56;102777.53;5079567;27;96973;-28
2023/05/19 07:40:13;;;;;;;2.45;1.50;;;;;;;14.68;61.74;102781.19;5078644;27;98976;-30
2023/05/19 07:42:38;;;;;;;2.55;1.50;;;;;;;14.78;61.88;102768.88;5097575;27;99097;-28
2023/05/19 07:45:04;;;;;;;2.47;1.55;;;;;;;15.01;61.50;102778.66;5098231;27;96535;-28
2023/05/19 07:47:30;;;;;;;3.65;1.58;;;;;;;15.07;61.32;102776.50;5079568;27;96799;-28
2023/05/19 07:49:55;;;;;;;3.75;1.55;;;;;;;15.15;60.52;102758.88;5097562;27;97937;-29
2023/05/19 07:52:20;;;;;;;3.17;1.63;;;;;;;15.39;59.94;102767.66;5098001;27;97250;-28
2023/05/19 07:54:46;;;;;;;4.65;1.58;;;;;;;15.54;59.76;102755.97;5098144;27;96657;-28
2023/05/19 07:57:13;;;;;;;2.83;1.40;;;;;;;15.63;59.49;102760.91;5098224;27;96929;-29
2023/05/19 07:59:38;;;;;;;2.53;1.50;;;;;;;15.74;58.16;102765.00;5097284;27;100088;-28
2023/05/19 08:02:04;;;;;;;3.67;1.60;;;;;;;15.93;58.50;102766.66;5097272;27;99324;-28
2023/05/19 08:04:29;;;;;;;4.05;1.48;;;;;;;16.06;57.78;102753.19;5097153;27;96611;-28
2023/05/19 08:06:54;;;;;;;4.00;1.58;;;;;;;16.21;58.28;102753.34;5097657;27;96796;-28
2023/05/19 08:09:20;;;;;;;6.28;1.52;;;;;;;16.29;57.50;102751.94;5096809;27;99315;-28
2023/05/19 08:11:48;;;;;;;3.53;1.88;;;;;;;16.34;57.62;102757.16;5097448;27;97241;-28
2023/05/19 08:14:14;;;;;;;2.22;1.38;;;;;;;16.23;57.80;102745.94;5078886;27;96716;-28
2023/05/19 08:16:41;;;;;;;4.88;1.75;;;;;;;16.24;58.04;102748.59;5097126;27;96523;-29
2023/05/19 08:19:06;;;;;;;2.65;1.65;;;;;;;16.28;57.85;102749.28;5096995;27;98112;-28
2023/05/19 08:21:35;;;;;;;3.83;1.42;;;;;;;16.35;57.88;102746.16;5097772;27;97777;-28
2023/05/19 08:24:00;;;;;;;6.10;1.65;;;;;;;16.59;57.62;102753.03;5078764;27;96843;-28
2023/05/19 08:26:26;;;;;;;5.50;1.73;;;;;;;16.76;56.93;102742.06;5097278;27;96802;-28
2023/05/19 08:28:52;;;;;;;3.10;1.40;;;;;;;16.97;56.32;102746.31;5077858;27;100708;-28
2023/05/19 08:31:17;;;;;;;4.05;1.17;;;;;;;17.19;55.76;102739.56;5097046;27;97764;-28
2023/05/19 08:33:43;;;;;;;4.53;1.05;;;;;;;17.39;55.27;102735.63;5093226;27;98736;-29
2023/05/19 08:36:08;;;;;;;4.25;1.85;;;;;;;17.60;54.31;102733.44;5078740;27;96897;-28
2023/05/19 08:38:34;;;;;;;2.70;1.50;;;;;;;17.75;55.24;102727.00;5096990;27;97896;-29
2023/05/19 08:41:00;;;;;;;4.82;1.75;;;;;;;17.70;52.40;102726.41;5096992;27;97821;-29
2023/05/19 08:43:26;;;;;;;6.38;1.50;;;;;;;17.77;53.52;102729.66;5078557;27;96717;-28
2023/05/19 08:45:52;;;;;;;1.88;1.50;;;;;;;17.78;51.93;102724.09;5097371;27;96845;-28
2023/05/19 08:48:19;;;;;;;2.63;1.05;;;;;;;17.82;52.52;102727.56;5096206;27;99504;-28
2023/05/19 08:50:59;;;;;;;2.78;1.27;;;;;;;17.80;52.62;102722.19;5078038;27;101360;-28
2023/05/19 08:53:39;;;;;;;2.65;1.15;;;;;;;17.98;52.28;102717.41;5077950;27;96599;-28
2023/05/19 08:56:15;;;;;;;2.05;1.40;;;;;;;18.17;52.48;102714.38;5097126;27;96689;-28
2023/05/19 08:58:42;;;;;;;3.78;1.33;;;;;;;18.24;53.13;102715.75;5077498;27;101070;-29
2023/05/19 09:01:10;;;;;;;3.50;1.42;;;;;;;18.40;51.40;102714.72;5077918;27;101149;-28
2023/05/19 09:03:37;;;;;;;4.43;1.20;;;;;;;18.51;51.74;102709.44;5078336;27;96582;-28
2023/05/19 09:06:11;;;;;;;4.72;1.02;;;;;;;18.60;50.51;102711.56;5078292;27;97126;-30
2023/05/19 09:08:36;;;;;;;1.77;1.25;;;;;;;18.71;51.44;102712.72;5096195;27;97955;-28
2023/05/19 09:11:02;;;;;;;2.00;1.17;;;;;;;18.85;50.89;102720.94;5078154;27;101231;-30
2023/05/19 09:13:27;;;;;;;3.15;1.27;;;;;;;18.95;50.09;102716.63;5096632;27;96609;-28
2023/05/19 09:15:55;;;;;;;2.15;1.38;;;;;;;18.91;50.18;102708.69;5096798;27;96815;-28
2023/05/19 09:18:20;;;;;;;2.83;1.35;;;;;;;19.00;50.50;102714.44;5077309;27;101367;-29
2023/05/19 09:20:46;;;;;;;1.98;1.13;;;;;;;18.98;49.59;102710.91;5096046;27;98552;-29
2023/05/19 09:23:13;;;;;;;2.03;1.13;;;;;;;19.08;48.47;102708.44;5096779;27;96532;-29
2023/05/19 09:25:52;;;;;;;2.45;1.17;;;;;;;19.17;49.86;102707.81;5096554;27;96790;-29
2023/05/19 09:28:29;;;;;;;2.15;1.08;;;;;;;18.85;50.29;102710.88;5076635;27;100994;-28
2023/05/19 09:31:01;;;;;;;2.05;1.25;;;;;;;18.98;48.55;102699.94;5095985;27;99517;-28
2023/05/19 09:33:27;;;;;;;4.20;1.27;;;;;;;19.22;47.31;102707.50;5095842;27;96632;-28
2023/05/19 09:35:55;;;;;;;2.25;1.30;;;;;;;19.42;48.54;102697.88;5097017;27;96801;-28
2023/05/19 09:38:22;;;;;;;1.83;1.17;;;;;;;19.40;45.36;102695.25;5095707;27;99488;-28
2023/05/19 09:40:48;;;;;;;1.55;0.93;;;;;;;19.46;47.89;102711.28;5077401;27;100904;-28
2023/05/19 09:43:15;;;;;;;1.88;1.00;;;;;;;19.39;46.99;102703.59;5095746;27;96574;-27
2023/05/19 09:45:41;;;;;;;7.47;1.17;;;;;;;19.15;47.81;102709.78;5077662;27;96892;-28
2023/05/19 09:48:06;;;;;;;1.40;0.90;;;;;;;19.17;48.35;102698.69;5096130;27;97905;-29
2023/05/19 09:50:32;;;;;;;3.97;1.20;;;;;;;19.38;47.17;102699.97;5095863;27;98040;-28
2023/05/19 09:52:58;;;;;;;3.50;1.30;;;;;;;19.38;47.62;102697.22;5077473;27;96718;-28
2023/05/19 09:55:31;;;;;;;8.00;1.48;;;;;;;18.98;46.63;102710.91;5096123;27;96812;-29
2023/05/19 09:57:59;;;;;;;2.35;1.10;;;;;;;18.70;48.40;102697.25;5077102;27;100931;-28
2023/05/19 10:00:25;;;;;;;3.63;1.00;;;;;;;18.71;48.27;102704.47;5077400;27;100826;-28
2023/05/19 10:02:51;;;;;;;1.98;1.05;;;;;;;18.98;47.49;102705.44;5077288;27;96576;-28
2023/05/19 10:05:21;;;;;;;2.60;1.10;;;;;;;19.33;47.46;102691.16;5096061;27;96778;-28
2023/05/19 10:07:50;;;;;;;2.72;1.00;;;;;;;19.71;46.44;102698.59;5094739;27;99684;-28
2023/05/19 10:10:16;;;;;;;1.83;0.98;;;;;;;19.47;46.88;102695.66;5076902;27;100734;-28
2023/05/19 10:12:42;;;;;;;2.83;1.15;;;;;;;19.54;43.96;102699.75;5077340;27;96763;-29
2023/05/19 10:15:09;;;;;;;2.17;1.15;;;;;;;19.65;46.54;102693.50;5096086;27;96802;-28
2023/05/19 10:17:36;;;;;;;4.75;1.20;;;;;;;19.78;45.28;102690.78;5095266;27;99398;-28
2023/05/19 10:20:03;;;;;;;5.05;0.82;;;;;;;19.91;44.59;102688.94;5076703;27;100798;-28
2023/05/19 10:22:29;;;;;;;1.58;1.00;;;;;;;20.07;43.27;102683.19;5077133;27;96593;-27
2023/05/19 10:24:54;;;;;;;3.95;1.08;;;;;;;20.04;43.67;102681.53;5096166;27;96798;-28
2023/05/19 10:27:21;;;;;;;2.30;1.00;;;;;;;19.93;42.73;102690.59;5095365;27;97687;-29
2023/05/19 10:29:50;;;;;;;2.95;1.20;;;;;;;19.86;44.77;102685.63;5076564;27;101135;-28
2023/05/19 10:32:19;;;;;;;2.78;1.02;;;;;;;19.90;43.29;102688.06;5075646;27;99560;-28
2023/05/19 10:34:55;;;;;;;3.80;1.02;;;;;;;19.95;42.81;102690.50;5096023;27;96553;-28
2023/05/19 10:37:31;;;;;;;4.15;1.13;;;;;;;19.86;42.94;102685.63;5076844;27;99191;-28
2023/05/19 10:39:57;;;;;;;2.20;1.05;;;;;;;19.87;44.70;102663.50;5079553;27;100767;-29
2023/05/19 10:43:00;;;;;;;4.03;1.30;;;;;;;19.80;43.29;102675.94;5080360;27;96635;-28
2023/05/19 10:45:30;;;;;;;4.13;0.90;;;;;;;19.75;43.20;102675.41;5099178;27;96824;-28
2023/05/19 10:47:55;;;;;;;2.47;1.10;;;;;;;19.81;44.29;102661.22;5080068;27;101382;-29
2023/05/19 10:50:20;;;;;;;3.17;1.17;;;;;;;20.08;44.21;102663.81;5098845;27;99674;-28
2023/05/19 10:52:55;;;;;;;2.10;1.00;;;;;;;20.22;41.37;102662.81;5099158;27;96437;-28
2023/05/19 10:55:55;;;;;;;3.28;1.13;;;;;;;20.65;41.80;102667.03;5080217;27;96765;-28
2023/05/19 10:58:35;;;;;;;1.17;0.57;;;;;;;20.78;42.45;102657.75;5097994;27;99309;-28
2023/05/19 11:01:00;;;;;;;2.30;0.60;;;;;;;20.92;39.45;102661.28;5079858;27;100587;-30
2023/05/19 11:03:27;;;;;;;0.90;0.70;;;;;;;20.93;40.54;102644.66;5099206;27;96602;-28
2023/05/19 11:06:31;;;;;;;2.47;0.80;;;;;;;21.32;40.19;102656.31;5079994;27;97054;-28
2023/05/19 11:08:59;;;;;;;1.48;0.68;;;;;;;21.38;39.71;102660.47;5079492;27;101390;-28
2023/05/19 11:11:26;;;;;;;5.13;1.52;;;;;;;21.33;38.96;102659.94;5079688;27;101409;-28
2023/05/19 11:13:56;;;;;;;3.22;1.05;;;;;;;21.31;37.66;102654.56;5080124;27;96729;-30
2023/05/19 11:16:28;;;;;;;2.97;0.95;;;;;;;21.37;37.71;102653.22;5098974;27;96651;-28
2023/05/19 11:18:57;;;;;;;3.22;1.10;;;;;;;21.43;38.87;102644.50;5079619;27;99610;-28
2023/05/19 11:21:22;;;;;;;2.13;0.98;;;;;;;21.52;38.94;102645.63;5079408;27;100855;-28
2023/05/19 11:23:50;;;;;;;4.25;1.20;;;;;;;21.64;39.32;102658.44;5098132;27;96638;-30
2023/05/19 11:26:44;;;;;;;2.20;1.00;;;;;;;21.48;37.85;102656.03;5079860;27;96812;-28
2023/05/19 11:29:10;;;;;;;2.88;0.80;;;;;;;21.26;38.61;102647.66;5079458;27;101000;-29